Time;durP1;ratioP1;P1;durP2;ratioP2;P2;SDS_P1;SDS_P2;PMS_P1;PMS_P2;Temp;Humidity;BMP_temperature;BMP_pressure;BME280_temperature;BME280_humidity;BME280_pressure;Samples;Min_cycle;Max_cycle;Signal;HPM_P1;HPM_P2
2023/05/16 00:01:40;;;;;;;2.17;0.93;;;9.50;1.00;;;;;;5052886;28;20045;-63
2023/05/16 00:04:07;;;;;;;1.88;0.52;;;9.20;1.00;;;;;;5051583;28;20465;-63
2023/05/16 00:06:34;;;;;;;2.20;1.13;;;9.20;1.00;;;;;;5052765;28;20125;-64
2023/05/16 00:09:00;;;;;;;2.78;0.95;;;9.10;1.00;;;;;;5052566;28;20099;-64
2023/05/16 00:11:26;;;;;;;4.03;0.85;;;9.10;1.00;;;;;;5052841;28;20044;-64
2023/05/16 00:13:52;;;;;;;1.55;0.55;;;9.00;1.00;;;;;;5052865;28;20045;-63
2023/05/16 00:16:20;;;;;;;2.17;0.65;;;9.00;1.00;;;;;;5052899;28;20082;-64
2023/05/16 00:18:46;;;;;;;5.78;0.75;;;9.00;1.00;;;;;;5052859;28;20457;-64
2023/05/16 00:21:12;;;;;;;4.47;0.80;;;9.00;1.00;;;;;;5052663;28;20133;-63
2023/05/16 00:23:38;;;;;;;5.50;0.80;;;9.00;1.00;;;;;;5051290;28;20431;-64
2023/05/16 00:26:03;;;;;;;7.15;0.88;;;9.00;1.00;;;;;;5052347;28;20033;-63
2023/05/16 00:28:29;;;;;;;4.88;1.08;;;8.90;1.00;;;;;;5052382;28;20095;-64
2023/05/16 00:30:55;;;;;;;3.05;1.08;;;8.90;1.00;;;;;;5051040;28;20084;-64
2023/05/16 00:33:20;;;;;;;2.97;0.57;;;8.90;1.00;;;;;;5052413;28;20516;-64
2023/05/16 00:35:46;;;;;;;5.10;1.08;;;8.90;99.90;;;;;;5052535;28;20040;-63
2023/05/16 00:38:12;;;;;;;3.97;0.57;;;8.80;99.90;;;;;;5052643;28;20397;-64
2023/05/16 00:40:37;;;;;;;3.08;1.00;;;8.70;99.90;;;;;;5052823;28;20380;-64
2023/05/16 00:43:03;;;;;;;2.03;0.60;;;8.70;99.90;;;;;;5052551;28;20048;-64
2023/05/16 00:45:29;;;;;;;5.97;0.65;;;8.70;1.00;;;;;;5052558;28;20450;-64
2023/05/16 00:47:54;;;;;;;4.85;0.93;;;8.70;99.90;;;;;;5052574;28;20072;-64
2023/05/16 00:50:20;;;;;;;7.78;1.00;;;9.40;1.00;;;;;;5052485;28;20516;-63
2023/05/16 00:52:47;;;;;;;3.28;0.90;;;8.70;99.90;;;;;;5052512;28;20124;-63
2023/05/16 00:55:13;;;;;;;4.22;0.73;;;8.60;99.90;;;;;;5052241;28;20033;-64
2023/05/16 00:57:38;;;;;;;2.85;0.70;;;8.60;99.90;;;;;;5055866;28;20095;-63
2023/05/16 01:00:09;;;;;;;5.05;1.10;;;8.50;99.90;;;;;;5056303;28;20037;-64
2023/05/16 01:02:36;;;;;;;5.53;0.95;;;8.60;99.90;;;;;;5054802;28;20421;-64
2023/05/16 01:05:04;;;;;;;2.05;0.77;;;8.60;99.90;;;;;;5055688;28;20136;-66
2023/05/16 01:07:30;;;;;;;4.65;0.70;;;8.70;99.90;;;;;;5056214;28;20131;-64
2023/05/16 01:09:56;;;;;;;0.55;0.38;;;8.90;99.90;;;;;;5056091;28;20040;-64
2023/05/16 01:12:35;;;;;;;10.02;0.85;;;8.50;99.90;;;;;;5055736;28;20478;-64
2023/05/16 01:15:08;;;;;;;2.35;0.95;;;8.80;99.90;;;;;;5054857;28;20099;-64
2023/05/16 01:18:02;;;;;;;3.95;0.80;;;8.50;99.90;;;;;;5055960;28;20388;-64
2023/05/16 01:20:42;;;;;;;3.90;0.60;;;8.70;99.90;;;;;;5055915;28;20041;-64
2023/05/16 01:23:20;;;;;;;1.63;0.68;;;8.30;99.90;;;;;;5055609;28;20033;-64
2023/05/16 01:25:56;;;;;;;6.68;0.70;;;8.30;99.90;;;;;;5055439;28;20040;-64
2023/05/16 01:28:23;;;;;;;2.22;0.80;;;8.20;99.90;;;;;;5054536;28;20060;-64
2023/05/16 01:30:50;;;;;;;4.93;0.50;;;8.20;99.90;;;;;;5055548;28;20428;-64
2023/05/16 01:33:16;;;;;;;2.22;0.68;;;8.20;99.90;;;;;;5055548;28;20044;-66
2023/05/16 01:36:05;;;;;;;3.08;0.68;;;8.20;99.90;;;;;;5055618;28;20037;-64
2023/05/16 01:39:00;;;;;;;4.20;1.30;;;8.10;1.00;;;;;;5055627;28;20400;-64
2023/05/16 01:41:35;;;;;;;1.80;0.60;;;8.20;1.00;;;;;;5054392;28;20489;-63
2023/05/16 01:44:06;;;;;;;1.30;0.60;;;8.20;1.00;;;;;;5055151;28;20041;-64
2023/05/16 01:46:39;;;;;;;3.67;1.73;;;8.20;1.00;;;;;;5055468;28;20037;-64
2023/05/16 01:49:16;;;;;;;3.20;0.80;;;8.20;1.00;;;;;;5055434;28;20041;-64
2023/05/16 01:51:49;;;;;;;7.22;0.80;;;8.20;99.90;;;;;;5053856;28;20069;-64
2023/05/16 01:54:18;;;;;;;4.93;1.25;;;8.10;99.90;;;;;;5054206;28;20116;-64
2023/05/16 01:56:53;;;;;;;4.20;0.68;;;7.90;99.90;;;;;;5054989;28;20073;-64
2023/05/16 01:59:28;;;;;;;1.65;0.65;;;8.10;99.90;;;;;;5053691;28;20476;-63
2023/05/16 02:01:55;;;;;;;2.38;0.60;;;8.00;99.90;;;;;;5053544;28;20124;-64
2023/05/16 02:04:22;;;;;;;1.75;0.55;;;8.00;99.90;;;;;;5054955;28;20052;-64
2023/05/16 02:06:49;;;;;;;2.25;0.55;;;8.80;99.90;;;;;;5053276;28;20110;-65
2023/05/16 02:09:15;;;;;;;3.40;0.63;;;7.90;99.90;;;;;;5054849;28;20091;-65
2023/05/16 02:11:41;;;;;;;3.58;0.70;;;9.10;99.90;;;;;;5054926;28;20088;-64
2023/05/16 02:14:06;;;;;;;2.95;0.47;;;8.20;99.90;;;;;;5053362;28;20476;-63
2023/05/16 02:16:33;;;;;;;4.13;0.55;;;7.80;99.90;;;;;;5036764;28;20186;-64
2023/05/16 02:18:58;;;;;;;1.40;0.75;;;7.80;99.90;;;;;;5054788;28;20116;-63
2023/05/16 02:21:24;;;;;;;2.35;0.55;;;7.80;99.90;;;;;;5054814;28;20076;-63
2023/05/16 02:23:50;;;;;;;4.93;0.77;;;8.60;99.90;;;;;;5054698;28;20044;-64
2023/05/16 02:26:15;;;;;;;4.05;0.60;;;8.60;99.90;;;;;;5054749;28;20484;-64
2023/05/16 02:28:41;;;;;;;2.20;0.60;;;7.70;99.90;;;;;;5054876;28;20120;-63
2023/05/16 02:31:06;;;;;;;3.92;0.60;;;7.70;99.90;;;;;;5054469;28;20044;-64
2023/05/16 02:33:33;;;;;;;5.75;0.55;;;7.80;99.90;;;;;;5054255;28;20558;-64
2023/05/16 02:35:59;;;;;;;4.30;0.68;;;7.70;99.90;;;;;;5053223;28;20052;-64
2023/05/16 02:38:24;;;;;;;2.88;0.52;;;7.70;99.90;;;;;;5052984;28;20036;-64
2023/05/16 02:40:50;;;;;;;1.63;0.63;;;8.40;99.90;;;;;;5054427;28;20389;-64
2023/05/16 02:43:16;;;;;;;1.88;0.63;;;7.60;99.90;;;;;;5053999;28;20067;-64
2023/05/16 02:45:41;;;;;;;1.10;0.40;;;7.90;99.90;;;;;;5054414;28;20048;-64
2023/05/16 02:48:07;;;;;;;2.88;0.82;;;7.50;99.90;;;;;;5054287;28;20036;-64
2023/05/16 02:50:33;;;;;;;3.10;0.70;;;8.50;99.90;;;;;;5052635;28;20053;-64
2023/05/16 02:53:01;;;;;;;0.77;0.50;;;7.50;1.00;;;;;;5054211;28;20037;-64
2023/05/16 02:55:27;;;;;;;3.88;0.82;;;7.80;1.00;;;;;;5053860;28;20409;-63
2023/05/16 02:57:53;;;;;;;6.70;0.93;;;7.40;1.00;;;;;;5054016;28;20052;-64
2023/05/16 03:00:19;;;;;;;1.48;0.70;;;7.40;1.00;;;;;;5052775;28;20037;-64
2023/05/16 03:02:44;;;;;;;4.53;0.47;;;7.50;1.00;;;;;;5052414;28;20481;-64
2023/05/16 03:05:10;;;;;;;3.13;0.50;;;7.50;1.00;;;;;;5053609;28;20073;-64
2023/05/16 03:07:36;;;;;;;3.53;0.60;;;7.60;1.00;;;;;;5052749;28;20102;-64
2023/05/16 03:10:03;;;;;;;1.90;0.47;;;7.60;1.00;;;;;;5053849;28;20454;-64
2023/05/16 03:12:29;;;;;;;0.75;0.52;;;7.60;1.00;;;;;;5052628;28;20032;-64
2023/05/16 03:14:54;;;;;;;1.55;0.47;;;7.60;1.00;;;;;;5053470;28;20102;-63
2023/05/16 03:17:20;;;;;;;0.95;0.45;;;7.60;1.00;;;;;;5053734;28;20496;-64
2023/05/16 03:19:46;;;;;;;1.58;0.50;;;7.60;1.00;;;;;;5034860;28;20037;-64
2023/05/16 03:22:12;;;;;;;4.07;1.08;;;7.60;1.00;;;;;;5053567;28;20040;-64
2023/05/16 03:24:37;;;;;;;3.60;0.82;;;7.50;1.00;;;;;;5052028;28;20055;-64
2023/05/16 03:27:04;;;;;;;1.92;0.80;;;7.60;1.00;;;;;;5053525;28;20085;-64
2023/05/16 03:29:30;;;;;;;3.50;0.50;;;7.40;1.00;;;;;;5053272;28;20045;-64
2023/05/16 03:31:56;;;;;;;7.68;0.95;;;7.40;1.00;;;;;;5053363;28;20075;-64
2023/05/16 03:34:21;;;;;;;2.85;0.80;;;7.40;1.00;;;;;;5053437;28;20029;-64
2023/05/16 03:36:48;;;;;;;1.90;0.60;;;7.40;1.00;;;;;;5053391;28;20040;-64
2023/05/16 03:39:14;;;;;;;2.55;1.38;;;7.40;2.50;;;;;;5053354;28;20029;-64
2023/05/16 03:41:40;;;;;;;1.15;0.60;;;7.50;1.10;;;;;;5053066;28;20461;-64
2023/05/16 03:44:05;;;;;;;2.90;0.73;;;7.50;23.90;;;;;;5053234;28;20115;-64
2023/05/16 03:46:31;;;;;;;3.70;0.60;;;7.50;20.70;;;;;;5052963;28;20438;-64
2023/05/16 03:48:57;;;;;;;7.30;0.68;;;7.50;20.00;;;;;;5053231;28;20068;-64
2023/05/16 03:51:22;;;;;;;2.25;0.80;;;7.50;18.30;;;;;;5053053;28;20041;-64
2023/05/16 03:53:48;;;;;;;1.08;0.60;;;7.50;25.80;;;;;;5053177;28;20033;-64
2023/05/16 03:56:13;;;;;;;5.55;0.70;;;7.50;31.10;;;;;;5051888;28;20116;-64
2023/05/16 03:58:39;;;;;;;3.08;0.77;;;7.40;46.00;;;;;;5053066;28;20068;-64
2023/05/16 04:01:05;;;;;;;4.88;0.60;;;7.40;46.90;;;;;;5052929;28;20044;-64
2023/05/16 04:03:32;;;;;;;3.58;0.70;;;7.40;41.80;;;;;;5053022;28;20033;-65
2023/05/16 04:05:58;;;;;;;1.08;0.45;;;7.40;39.70;;;;;;5052479;28;20111;-64
2023/05/16 04:08:24;;;;;;;3.92;0.40;;;7.40;47.30;;;;;;5035120;28;20123;-64
2023/05/16 04:10:50;;;;;;;1.92;0.57;;;7.40;53.70;;;;;;5052457;28;20041;-64
2023/05/16 04:13:16;;;;;;;0.55;0.43;;;7.40;65.60;;;;;;5051633;28;20048;-64
2023/05/16 04:15:41;;;;;;;4.85;0.80;;;7.40;52.50;;;;;;5052957;28;20037;-64
2023/05/16 04:18:08;;;;;;;1.85;0.68;;;6.80;51.60;;;;;;5052807;28;20041;-66
2023/05/16 04:20:34;;;;;;;4.78;0.93;;;7.40;47.90;;;;;;5052837;28;20449;-64
2023/05/16 04:23:00;;;;;;;2.20;0.50;;;7.40;45.70;;;;;;5051530;28;20503;-64
2023/05/16 04:25:25;;;;;;;2.05;0.70;;;7.40;40.20;;;;;;5052770;28;20045;-64
2023/05/16 04:27:51;;;;;;;2.63;0.75;;;7.40;26.20;;;;;;5052388;28;20040;-64
2023/05/16 04:30:17;;;;;;;5.30;0.80;;;7.40;34.90;;;;;;5053652;28;20033;-64
2023/05/16 04:32:42;;;;;;;4.85;0.85;;;7.40;28.90;;;;;;5055222;28;20053;-64
2023/05/16 04:35:08;;;;;;;7.15;0.65;;;7.40;31.90;;;;;;5056784;28;20037;-64
2023/05/16 04:37:34;;;;;;;7.03;0.63;;;7.40;31.60;;;;;;5056759;28;20039;-64
2023/05/16 04:40:00;;;;;;;5.05;0.82;;;7.50;33.30;;;;;;5056657;28;20394;-64
2023/05/16 04:42:26;;;;;;;2.80;0.65;;;7.50;24.90;;;;;;5056652;28;20041;-65
2023/05/16 04:44:52;;;;;;;1.55;0.68;;;7.50;23.10;;;;;;5056638;28;20037;-64
2023/05/16 04:47:17;;;;;;;2.63;0.70;;;7.50;14.20;;;;;;5055070;28;20045;-64
2023/05/16 04:49:43;;;;;;;2.75;0.73;;;7.60;16.80;;;;;;5038353;28;20051;-64
2023/05/16 04:52:10;;;;;;;1.73;0.40;;;7.60;22.00;;;;;;5056411;28;20048;-64
2023/05/16 04:54:37;;;;;;;4.80;0.77;;;7.70;2.70;;;;;;5056525;28;20037;-64
2023/05/16 04:57:03;;;;;;;1.02;0.60;;;7.60;1.00;;;;;;5056403;28;20381;-64
2023/05/16 04:59:29;;;;;;;3.50;1.10;;;7.70;1.00;;;;;;5055164;28;20075;-64
2023/05/16 05:01:54;;;;;;;2.45;0.93;;;7.70;1.00;;;;;;5054987;28;20385;-66
2023/05/16 05:04:21;;;;;;;3.55;0.88;;;7.80;1.00;;;;;;5055995;28;20049;-64
2023/05/16 05:06:47;;;;;;;4.82;0.93;;;7.90;1.00;;;;;;5056212;28;20159;-64
2023/05/16 05:09:12;;;;;;;5.07;0.88;;;8.00;1.00;;;;;;5055859;28;20075;-64
2023/05/16 05:11:38;;;;;;;3.05;0.70;;;8.10;1.00;;;;;;5055998;28;20041;-64
2023/05/16 05:14:04;;;;;;;2.33;0.45;;;8.10;1.00;;;;;;5055762;28;20562;-64
2023/05/16 05:16:29;;;;;;;3.22;1.48;;;8.20;1.00;;;;;;5055995;28;20032;-64
2023/05/16 05:18:55;;;;;;;8.93;1.00;;;8.30;99.90;;;;;;5055957;28;20045;-64
2023/05/16 05:21:22;;;;;;;1.33;0.50;;;8.30;1.00;;;;;;5055910;28;20043;-66
2023/05/16 05:23:48;;;;;;;5.15;0.60;;;8.40;99.90;;;;;;5055847;28;20044;-64
2023/05/16 05:26:14;;;;;;;3.90;1.05;;;8.40;99.90;;;;;;5056386;28;20179;-65
2023/05/16 05:28:40;;;;;;;3.45;1.02;;;8.60;99.90;;;;;;5055711;28;20440;-66
2023/05/16 05:31:06;;;;;;;5.28;0.80;;;8.70;99.90;;;;;;5055331;28;20127;-67
2023/05/16 05:33:32;;;;;;;3.13;0.65;;;9.70;99.90;;;;;;5054229;28;20424;-65
2023/05/16 05:35:58;;;;;;;4.75;1.10;;;8.90;18.90;;;;;;5055618;28;20045;-67
2023/05/16 05:38:24;;;;;;;1.83;0.80;;;9.00;8.70;;;;;;5055452;28;20480;-65
2023/05/16 05:40:50;;;;;;;3.08;0.65;;;9.10;99.90;;;;;;5055579;28;20389;-69
2023/05/16 05:43:16;;;;;;;2.30;0.57;;;9.10;99.90;;;;;;5054690;28;20045;-65
2023/05/16 05:45:42;;;;;;;3.33;0.80;;;9.10;99.90;;;;;;5055214;28;20037;-66
2023/05/16 05:48:09;;;;;;;4.75;0.85;;;9.50;99.90;;;;;;5054244;28;20041;-68
2023/05/16 05:50:35;;;;;;;4.00;0.70;;;9.10;1.00;;;;;;5053946;28;20327;-68
2023/05/16 05:53:01;;;;;;;3.72;0.70;;;9.70;99.90;;;;;;5055414;28;20052;-66
2023/05/16 05:55:26;;;;;;;1.85;0.68;;;9.50;99.90;;;;;;5055417;28;20478;-66
2023/05/16 05:57:52;;;;;;;3.50;0.98;;;9.50;94.80;;;;;;5055220;28;20106;-66
2023/05/16 06:00:18;;;;;;;2.40;0.60;;;10.60;99.90;;;;;;5055269;28;20414;-66
2023/05/16 06:02:43;;;;;;;5.00;0.77;;;9.70;29.20;;;;;;5054882;28;20408;-71
2023/05/16 06:05:09;;;;;;;1.83;0.57;;;9.70;99.90;;;;;;5036936;28;20107;-71
2023/05/16 06:07:34;;;;;;;2.38;0.63;;;9.80;1.00;;;;;;5053610;28;20049;-65
2023/05/16 06:10:03;;;;;;;4.65;0.93;;;9.80;99.90;;;;;;5055085;28;20542;-64
2023/05/16 06:12:29;;;;;;;1.55;0.60;;;10.10;99.90;;;;;;5055020;28;20041;-65
2023/05/16 06:14:55;;;;;;;4.40;0.95;;;10.10;99.90;;;;;;5055048;28;20539;-65
2023/05/16 06:17:21;;;;;;;5.55;0.60;;;10.10;99.90;;;;;;5054668;28;20033;-69
2023/05/16 06:19:46;;;;;;;2.85;0.57;;;10.30;99.90;;;;;;5036755;28;20051;-66
2023/05/16 06:22:12;;;;;;;1.90;0.57;;;10.00;99.90;;;;;;5053231;28;20036;-65
2023/05/16 06:24:40;;;;;;;4.03;0.80;;;10.30;1.00;;;;;;5054434;28;20098;-65
2023/05/16 06:27:06;;;;;;;2.92;0.50;;;10.50;99.90;;;;;;5054680;28;20055;-65
2023/05/16 06:29:31;;;;;;;2.70;0.73;;;10.70;99.90;;;;;;5054414;28;20032;-64
2023/05/16 06:31:57;;;;;;;1.98;0.88;;;11.00;99.90;;;;;;5054444;28;20498;-65
2023/05/16 06:34:26;;;;;;;1.85;0.90;;;10.80;99.90;;;;;;5053166;28;20087;-65
2023/05/16 06:36:55;;;;;;;4.35;0.80;;;11.00;99.90;;;;;;5054155;28;20052;-65
2023/05/16 06:39:20;;;;;;;1.55;0.55;;;11.10;95.00;;;;;;5054251;28;20029;-65
2023/05/16 06:41:46;;;;;;;4.38;0.80;;;11.10;1.00;;;;;;5054183;28;20045;-65
2023/05/16 06:44:11;;;;;;;1.10;0.85;;;11.20;1.00;;;;;;5054132;28;20048;-69
2023/05/16 06:46:37;;;;;;;5.53;0.90;;;11.10;99.90;;;;;;5054169;28;20091;-65
2023/05/16 06:49:03;;;;;;;1.67;0.77;;;10.90;99.90;;;;;;5054068;28;20639;-65
2023/05/16 06:51:30;;;;;;;1.73;0.85;;;10.80;99.90;;;;;;5054070;28;20051;-65
2023/05/16 06:53:56;;;;;;;4.05;1.02;;;10.60;99.90;;;;;;5052924;28;20460;-65
2023/05/16 06:56:24;;;;;;;2.05;0.50;;;10.90;1.00;;;;;;5035908;28;20048;-65
2023/05/16 06:58:50;;;;;;;1.52;0.60;;;10.50;1.00;;;;;;5052665;28;20103;-65
2023/05/16 07:01:15;;;;;;;1.17;0.60;;;10.40;1.00;;;;;;5035589;28;20045;-66
2023/05/16 07:03:41;;;;;;;1.35;0.80;;;10.30;1.00;;;;;;5053961;28;20037;-65
2023/05/16 07:06:07;;;;;;;1.73;0.52;;;10.40;1.00;;;;;;5052242;28;20190;-65
2023/05/16 07:08:34;;;;;;;1.38;0.45;;;10.60;1.00;;;;;;5053970;28;20468;-65
2023/05/16 07:11:00;;;;;;;0.70;0.30;;;10.80;99.90;;;;;;5053796;28;20041;-65
2023/05/16 07:13:26;;;;;;;0.75;0.30;;;11.00;99.90;;;;;;5053759;28;20124;-66
2023/05/16 07:15:52;;;;;;;1.60;0.68;;;11.10;99.90;;;;;;5053709;28;20079;-65
2023/05/16 07:18:18;;;;;;;0.63;0.40;;;11.30;99.90;;;;;;5053685;28;20470;-66
2023/05/16 07:20:44;;;;;;;2.65;0.40;;;11.50;99.90;;;;;;5053639;28;20037;-65
2023/05/16 07:23:10;;;;;;;1.88;0.70;;;13.30;99.90;;;;;;5053604;28;20112;-65
2023/05/16 07:25:36;;;;;;;1.42;0.52;;;11.70;99.90;;;;;;5053493;28;20125;-68
2023/05/16 07:28:05;;;;;;;2.83;0.90;;;11.80;99.90;;;;;;5053212;28;20029;-65
2023/05/16 07:30:30;;;;;;;2.97;0.45;;;12.00;99.90;;;;;;5053217;28;20063;-65
2023/05/16 07:32:56;;;;;;;2.50;0.50;;;12.30;99.90;;;;;;5053229;28;20520;-65
2023/05/16 07:35:22;;;;;;;2.08;0.60;;;12.70;99.90;;;;;;5052225;28;20511;-65
2023/05/16 07:37:48;;;;;;;4.13;0.70;;;12.20;99.90;;;;;;5053025;28;20032;-65
2023/05/16 07:40:14;;;;;;;1.58;0.88;;;11.90;99.90;;;;;;5052981;28;20036;-65
2023/05/16 07:42:39;;;;;;;0.60;0.30;;;11.60;99.90;;;;;;5053142;28;20040;-65
2023/05/16 07:45:06;;;;;;;0.85;0.43;;;12.40;99.90;;;;;;5051849;28;20447;-65
2023/05/16 07:47:32;;;;;;;3.17;0.65;;;11.80;99.90;;;;;;5052828;28;20041;-65
2023/05/16 07:49:57;;;;;;;1.20;0.60;;;12.00;99.90;;;;;;5053207;28;20090;-65
2023/05/16 07:52:23;;;;;;;1.77;0.40;;;12.00;99.90;;;;;;5053071;28;20037;-65
2023/05/16 07:54:48;;;;;;;1.40;0.40;;;12.30;99.90;;;;;;5053179;28;20041;-65
2023/05/16 07:57:14;;;;;;;1.00;0.55;;;12.30;99.90;;;;;;5052823;28;20053;-65
2023/05/16 07:59:41;;;;;;;3.17;0.40;;;12.50;99.90;;;;;;5053108;28;20033;-65
2023/05/16 08:02:06;;;;;;;5.43;0.65;;;13.10;99.90;;;;;;5053007;28;20040;-65
2023/05/16 08:04:32;;;;;;;2.70;0.75;;;12.70;99.90;;;;;;5051258;28;20068;-65
2023/05/16 08:06:58;;;;;;;1.73;0.55;;;12.70;99.90;;;;;;5051352;28;20045;-65
2023/05/16 08:09:23;;;;;;;2.55;0.95;;;12.70;99.90;;;;;;5051297;28;20087;-65
2023/05/16 08:11:49;;;;;;;0.93;0.50;;;12.60;99.90;;;;;;5051171;28;20067;-65
2023/05/16 08:14:15;;;;;;;2.03;0.60;;;12.50;99.90;;;;;;5052557;28;20037;-65
2023/05/16 08:16:40;;;;;;;3.55;0.57;;;12.70;99.90;;;;;;5052766;28;20078;-65
2023/05/16 08:19:06;;;;;;;1.65;0.70;;;13.80;99.90;;;;;;5052777;28;20484;-65
2023/05/16 08:21:32;;;;;;;1.80;0.77;;;13.10;99.90;;;;;;5052842;28;20455;-65
2023/05/16 08:23:58;;;;;;;5.10;0.95;;;13.10;99.90;;;;;;5052705;28;20041;-65
2023/05/16 08:26:24;;;;;;;1.27;0.60;;;13.20;99.90;;;;;;5052577;28;20040;-65
2023/05/16 08:28:49;;;;;;;1.80;0.52;;;13.40;99.90;;;;;;5052702;28;20033;-65
2023/05/16 08:31:15;;;;;;;4.03;0.50;;;13.30;94.90;;;;;;5052600;28;20045;-65
2023/05/16 08:33:41;;;;;;;0.82;0.60;;;13.40;96.20;;;;;;5052411;28;20052;-65
2023/05/16 08:36:08;;;;;;;2.08;0.77;;;13.40;95.00;;;;;;5051140;28;20033;-66
2023/05/16 08:38:34;;;;;;;4.03;0.52;;;13.50;86.80;;;;;;5051527;28;20112;-65
2023/05/16 08:40:59;;;;;;;4.55;0.60;;;13.30;81.40;;;;;;5051155;28;20119;-66
2023/05/16 08:43:25;;;;;;;0.82;0.43;;;13.20;88.80;;;;;;5052576;28;20044;-65
2023/05/16 08:45:51;;;;;;;1.85;0.70;;;12.90;80.30;;;;;;5052597;28;20037;-65
2023/05/16 08:48:21;;;;;;;2.38;0.52;;;13.40;82.40;;;;;;5052567;28;20488;-65
2023/05/16 08:50:47;;;;;;;2.70;0.95;;;12.90;79.10;;;;;;5052311;28;20037;-65
2023/05/16 08:53:16;;;;;;;3.83;0.95;;;12.90;80.20;;;;;;5052583;28;20083;-66
2023/05/16 08:55:44;;;;;;;3.10;0.60;;;12.50;79.40;;;;;;5052507;28;20037;-65
2023/05/16 08:58:11;;;;;;;1.50;0.47;;;12.30;82.50;;;;;;5052450;28;20396;-65
2023/05/16 09:00:38;;;;;;;1.55;0.75;;;12.10;88.90;;;;;;5052431;28;20033;-65
2023/05/16 09:03:04;;;;;;;2.10;0.90;;;11.90;92.70;;;;;;5052449;28;20404;-65
2023/05/16 09:05:30;;;;;;;4.57;0.60;;;11.80;93.10;;;;;;5051877;28;20049;-65
2023/05/16 09:07:56;;;;;;;4.40;0.70;;;11.90;97.90;;;;;;5052475;28;20045;-65
2023/05/16 09:10:22;;;;;;;3.30;0.63;;;12.10;99.40;;;;;;5052037;28;20496;-65
2023/05/16 09:12:47;;;;;;;2.10;0.60;;;12.40;99.90;;;;;;5050808;28;20083;-66
2023/05/16 09:15:13;;;;;;;1.25;0.47;;;12.60;99.90;;;;;;5052343;28;20522;-65
2023/05/16 09:17:42;;;;;;;3.95;0.63;;;13.70;99.90;;;;;;5052616;28;20076;-65
2023/05/16 09:20:13;;;;;;;1.75;0.50;;;13.10;99.90;;;;;;5056026;28;20041;-65
2023/05/16 09:22:39;;;;;;;1.45;0.50;;;13.40;99.90;;;;;;5055924;28;20399;-66
2023/05/16 09:25:06;;;;;;;2.33;0.73;;;14.10;99.90;;;;;;5055867;28;20041;-65
2023/05/16 09:27:32;;;;;;;2.42;0.50;;;13.90;98.30;;;;;;5054307;28;20126;-65
2023/05/16 09:29:58;;;;;;;1.70;0.68;;;13.80;97.20;;;;;;5054261;28;20099;-65
2023/05/16 09:32:24;;;;;;;2.65;0.60;;;13.50;94.50;;;;;;5055641;28;20052;-65
2023/05/16 09:34:52;;;;;;;1.27;0.50;;;13.60;97.30;;;;;;5054279;28;20110;-65
2023/05/16 09:37:19;;;;;;;0.63;0.45;;;13.70;98.70;;;;;;5055665;28;20126;-65
2023/05/16 09:39:53;;;;;;;2.42;0.77;;;13.80;97.40;;;;;;5055225;28;20036;-65
2023/05/16 09:42:20;;;;;;;1.40;0.43;;;14.00;99.90;;;;;;5054442;28;20041;-65
2023/05/16 09:44:50;;;;;;;0.82;0.52;;;14.00;95.70;;;;;;5055259;28;20500;-66
2023/05/16 09:47:17;;;;;;;1.95;0.57;;;13.80;89.60;;;;;;5055200;28;20051;-65
2023/05/16 09:49:45;;;;;;;5.00;0.88;;;14.10;84.90;;;;;;5055466;28;20412;-66
2023/05/16 09:52:11;;;;;;;4.40;0.63;;;13.60;87.30;;;;;;5055409;28;20041;-66
2023/05/16 09:54:38;;;;;;;1.85;0.77;;;13.80;90.70;;;;;;5055353;28;20029;-65
2023/05/16 09:57:03;;;;;;;0.77;0.40;;;13.90;86.90;;;;;;5055077;28;20123;-65
2023/05/16 09:59:36;;;;;;;1.15;0.75;;;14.10;90.20;;;;;;5053602;28;20120;-65
2023/05/16 10:02:07;;;;;;;0.98;0.50;;;14.20;90.00;;;;;;5055143;28;20071;-65
2023/05/16 10:04:34;;;;;;;1.35;0.50;;;14.00;77.40;;;;;;5054798;28;20052;-66
2023/05/16 10:07:03;;;;;;;2.80;0.43;;;14.00;77.30;;;;;;5055048;28;20048;-65
2023/05/16 10:09:33;;;;;;;2.40;0.55;;;14.20;75.40;;;;;;5053854;28;20045;-65
2023/05/16 10:12:05;;;;;;;1.03;0.50;;;14.20;78.60;;;;;;5054883;28;20366;-65
2023/05/16 10:14:36;;;;;;;2.95;0.57;;;14.00;77.40;;;;;;5054987;28;20431;-65
2023/05/16 10:17:05;;;;;;;;;;;14.20;77.50;;;;;;5055325;28;20049;-65
2023/05/16 10:19:35;;;;;;;1.02;0.50;;;14.40;77.00;;;;;;5054636;28;19920;-65
2023/05/16 10:22:04;;;;;;;1.58;0.40;;;14.30;75.50;;;;;;5054571;28;20041;-65
2023/05/16 10:24:47;;;;;;;5.07;1.05;;;14.10;75.40;;;;;;5054849;28;20047;-65
2023/05/16 10:27:14;;;;;;;1.80;0.70;;;13.80;71.00;;;;;;5054822;28;20033;-65
2023/05/16 10:29:40;;;;;;;1.63;0.47;;;13.70;69.50;;;;;;5053307;28;20496;-65
2023/05/16 10:32:07;;;;;;;2.42;0.40;;;13.50;65.20;;;;;;5054590;28;20174;-65
2023/05/16 10:34:33;;;;;;;1.40;0.50;;;13.40;63.20;;;;;;5054356;28;20041;-65
2023/05/16 10:37:00;;;;;;;2.33;0.68;;;13.40;70.30;;;;;;5054610;28;20067;-65
2023/05/16 10:39:27;;;;;;;1.35;0.43;;;13.60;72.80;;;;;;5054562;28;20032;-66
2023/05/16 10:41:54;;;;;;;1.20;0.43;;;13.70;69.80;;;;;;5054494;28;20396;-65
2023/05/16 10:44:19;;;;;;;2.05;0.57;;;13.80;71.20;;;;;;5054397;28;20072;-65
2023/05/16 10:46:46;;;;;;;1.52;0.70;;;14.10;76.20;;;;;;5054033;28;20125;-65
2023/05/16 10:49:22;;;;;;;0.75;0.40;;;14.60;68.40;;;;;;5054417;28;20062;-65
2023/05/16 10:52:06;;;;;;;4.85;0.70;;;14.10;59.80;;;;;;5054221;28;20128;-65
2023/05/16 10:54:40;;;;;;;1.77;0.60;;;14.10;60.40;;;;;;5054291;28;20041;-65
2023/05/16 10:57:21;;;;;;;2.67;0.77;;;13.90;60.70;;;;;;5052615;28;20499;-65
2023/05/16 10:59:49;;;;;;;4.10;0.65;;;13.80;62.30;;;;;;5053903;28;20489;-65
2023/05/16 11:02:26;;;;;;;1.63;0.40;;;13.60;65.00;;;;;;5052930;28;20072;-65
2023/05/16 11:04:53;;;;;;;1.92;0.40;;;13.60;66.10;;;;;;5053809;28;20053;-65
2023/05/16 11:07:21;;;;;;;0.60;0.28;;;13.90;69.60;;;;;;5053997;28;20032;-65
2023/05/16 11:10:07;;;;;;;0.82;0.43;;;13.90;72.70;;;;;;5053988;28;20531;-65
2023/05/16 11:12:48;;;;;;;2.17;0.70;;;13.90;70.40;;;;;;5052450;28;20047;-65
2023/05/16 11:15:24;;;;;;;1.15;0.50;;;13.70;62.10;;;;;;5052400;28;20040;-65
2023/05/16 11:18:02;;;;;;;2.63;0.57;;;14.00;66.10;;;;;;5052534;28;20041;-65
2023/05/16 11:20:33;;;;;;;4.55;0.57;;;14.10;68.30;;;;;;5052229;28;20041;-65
2023/05/16 11:23:28;;;;;;;1.90;0.60;;;14.00;63.30;;;;;;5052219;28;20519;-65
2023/05/16 11:25:59;;;;;;;2.13;0.70;;;13.90;63.90;;;;;;5035670;28;20136;-65
2023/05/16 11:28:26;;;;;;;0.43;0.40;;;13.90;63.10;;;;;;5053301;28;20122;-66
2023/05/16 11:30:55;;;;;;;0.93;0.47;;;14.10;60.50;;;;;;5053514;28;20427;-65
2023/05/16 11:33:22;;;;;;;2.53;0.40;;;14.40;63.60;;;;;;5053526;28;20053;-65
2023/05/16 11:36:01;;;;;;;1.40;0.50;;;14.70;61.30;;;;;;5053462;28;20032;-65
2023/05/16 11:38:30;;;;;;;0.40;0.40;;;14.30;62.30;;;;;;5053539;28;20112;-65
2023/05/16 11:41:04;;;;;;;0.45;0.40;;;14.40;61.20;;;;;;5052914;28;20045;-65
2023/05/16 11:43:43;;;;;;;2.35;0.60;;;15.40;62.40;;;;;;5051878;28;20381;-65
2023/05/16 11:46:13;;;;;;;1.70;0.73;;;14.40;62.10;;;;;;5053391;28;20080;-65
2023/05/16 11:48:39;;;;;;;2.08;0.63;;;14.50;64.60;;;;;;5053337;28;20114;-65
2023/05/16 11:51:05;;;;;;;2.28;1.10;;;14.50;59.20;;;;;;5053236;28;20505;-65
2023/05/16 11:53:31;;;;;;;5.07;0.60;;;14.30;56.40;;;;;;5051976;28;20040;-65
2023/05/16 11:56:00;;;;;;;5.40;0.98;;;14.20;56.60;;;;;;5051609;28;20037;-65
2023/05/16 11:58:26;;;;;;;2.50;0.70;;;14.20;58.00;;;;;;5051853;28;20106;-68
2023/05/16 12:00:52;;;;;;;5.50;0.85;;;14.20;59.40;;;;;;5051782;28;20037;-69
2023/05/16 12:03:19;;;;;;;5.50;0.63;;;14.30;57.40;;;;;;5052954;28;20099;-65
2023/05/16 12:05:52;;;;;;;3.42;0.80;;;14.40;59.00;;;;;;5052618;28;20053;-65
2023/05/16 12:08:20;;;;;;;1.83;1.05;;;14.50;57.50;;;;;;5052610;28;20124;-65
2023/05/16 12:10:45;;;;;;;4.20;1.08;;;14.60;52.40;;;;;;5053308;28;20033;-64
2023/05/16 12:13:11;;;;;;;3.22;0.90;;;14.60;53.90;;;;;;5052834;28;20039;-64
2023/05/16 12:15:37;;;;;;;5.15;0.98;;;14.50;54.20;;;;;;5052803;28;20037;-64
2023/05/16 12:18:02;;;;;;;4.32;0.82;;;14.30;54.40;;;;;;5052641;28;20561;-64
2023/05/16 12:20:28;;;;;;;4.43;1.13;;;14.20;55.30;;;;;;5052975;28;20033;-64
2023/05/16 12:22:57;;;;;;;2.58;1.10;;;13.90;52.30;;;;;;5052786;28;20052;-65
2023/05/16 12:25:31;;;;;;;1.05;0.63;;;13.80;53.20;;;;;;5052592;28;20045;-64
2023/05/16 12:27:58;;;;;;;4.53;0.80;;;13.90;53.70;;;;;;5051415;28;20052;-64
2023/05/16 12:30:26;;;;;;;2.88;0.75;;;14.10;55.10;;;;;;5052751;28;20045;-64
2023/05/16 12:33:03;;;;;;;3.15;0.95;;;15.00;60.70;;;;;;5052626;28;20448;-64
2023/05/16 12:35:30;;;;;;;3.88;1.17;;;14.70;59.90;;;;;;5052418;28;20048;-64
2023/05/16 12:37:56;;;;;;;1.95;0.80;;;14.80;60.90;;;;;;5052330;28;20037;-64
2023/05/16 12:40:22;;;;;;;3.25;0.82;;;15.00;58.80;;;;;;5051421;28;20040;-64
2023/05/16 12:42:52;;;;;;;2.30;1.15;;;15.00;60.50;;;;;;5052625;28;20052;-64
2023/05/16 12:45:17;;;;;;;2.40;1.00;;;15.00;60.10;;;;;;5052372;28;20045;-64
2023/05/16 12:47:44;;;;;;;7.55;1.27;;;15.70;61.20;;;;;;5052347;28;20432;-64
2023/05/16 12:50:15;;;;;;;1.80;1.08;;;15.20;62.60;;;;;;5052562;28;20040;-66
2023/05/16 12:52:51;;;;;;;3.33;1.48;;;15.50;63.40;;;;;;5054408;28;20402;-65
2023/05/16 12:55:17;;;;;;;3.42;1.23;;;15.40;62.10;;;;;;5056494;28;20041;-64